createdAt,value
2018-11-21T00:00:26.877Z,25.67
2018-11-21T00:05:33.081Z,23.70
2018-11-21T00:10:34.706Z,27.40
2018-11-21T00:15:38.541Z,26.20
2018-11-21T00:20:42.251Z,26.27
2018-11-21T00:25:46.092Z,22.47
2018-11-21T00:30:49.802Z,26.33
2018-11-21T00:35:53.574Z,26.17
2018-11-21T00:40:57.510Z,27.73
2018-11-21T00:46:01.314Z,27.67
2018-11-21T00:51:05.181Z,26.00
2018-11-21T00:56:09.092Z,28.30
2018-11-21T01:01:12.958Z,26.47
2018-11-21T01:06:16.797Z,25.57
2018-11-21T01:11:20.605Z,28.23
2018-11-21T01:16:24.315Z,26.50
2018-11-21T01:21:28.035Z,29.20
2018-11-21T01:26:31.723Z,26.87
2018-11-21T01:31:35.569Z,25.13
2018-11-21T01:36:39.246Z,27.17
2018-11-21T01:41:43.859Z,26.87
2018-11-21T01:46:48.559Z,25.23
2018-11-21T01:51:50.145Z,29.83
2018-11-21T01:56:53.931Z,26.33
2018-11-21T02:01:59.618Z,25.50
2018-11-21T02:07:01.553Z,28.03
2018-11-21T02:12:05.279Z,31.53
2018-11-21T02:17:10.976Z,27.73
2018-11-21T02:22:12.637Z,27.00
2018-11-21T02:27:16.312Z,28.80
2018-11-21T02:32:20.002Z,25.87
2018-11-21T02:37:23.755Z,26.43
2018-11-21T02:42:29.323Z,25.83
2018-11-21T02:47:31.026Z,24.83
2018-11-21T02:52:34.799Z,28.40
2018-11-21T02:57:39.982Z,27.53
2018-11-21T03:02:42.201Z,27.90
2018-11-21T03:07:59.310Z,25.77
2018-11-21T03:13:02.989Z,29.80
2018-11-21T03:18:06.828Z,31.03
2018-11-21T03:23:10.591Z,29.90
2018-11-21T03:28:14.266Z,25.17
2018-11-21T03:33:18.077Z,25.97
2018-11-21T03:38:21.856Z,29.03
2018-11-21T03:43:27.054Z,29.83
2018-11-21T03:48:29.370Z,28.27
2018-11-21T03:53:32.986Z,27.10
2018-11-21T03:58:38.663Z,33.37
2018-11-21T04:03:40.514Z,28.60
2018-11-21T04:08:44.297Z,31.60
2018-11-21T04:13:47.919Z,31.07
2018-11-21T04:18:56.014Z,31.80
2018-11-21T04:24:01.034Z,27.80
2018-11-21T04:29:03.255Z,30.17
2018-11-21T04:34:07.015Z,34.83
2018-11-21T04:39:11.758Z,27.70
2018-11-21T04:44:15.404Z,27.43
2018-11-21T04:49:19.088Z,28.90
2018-11-21T04:54:22.673Z,28.77
2018-11-21T04:59:26.544Z,29.13
2018-11-21T05:04:30.524Z,32.83
2018-11-21T05:09:34.388Z,28.87
2018-11-21T05:14:39.409Z,29.43
2018-11-21T05:19:41.914Z,32.10
2018-11-21T05:24:45.727Z,34.40
2018-11-21T05:29:49.646Z,33.63
2018-11-21T05:34:54.847Z,30.70
2018-11-21T05:39:57.312Z,29.60
2018-11-21T05:45:01.218Z,29.97
2018-11-21T05:50:07.426Z,30.13
2018-11-21T05:55:10.101Z,31.33
2018-11-21T06:00:14.690Z,29.67
2018-11-21T06:05:18.422Z,30.90
2018-11-21T06:10:24.192Z,33.73
2018-11-21T06:15:26.059Z,33.07
2018-11-21T06:20:29.764Z,33.37
2018-11-21T06:25:33.659Z,34.43
2018-11-21T06:30:40.297Z,33.47
2018-11-21T06:35:45.331Z,34.83
2018-11-21T06:40:47.993Z,34.13
2018-11-21T06:45:54.064Z,29.07
2018-11-21T06:50:57.785Z,33.37
2018-11-21T06:56:00.286Z,34.23
2018-11-21T07:01:05.442Z,34.00
2018-11-21T07:06:09.900Z,31.00
2018-11-21T07:11:12.812Z,33.07
2018-11-21T07:16:17.035Z,34.53
2018-11-21T07:21:23.264Z,35.63
2018-11-21T07:26:26.314Z,38.73
2018-11-21T07:31:30.980Z,30.70
2018-11-21T07:36:35.125Z,39.80
2018-11-21T07:41:38.517Z,35.70
2018-11-21T07:46:42.269Z,34.23
2018-11-21T07:51:46.494Z,34.43
2018-11-21T07:57:42.346Z,37.40
2018-11-21T08:02:44.630Z,36.90
2018-11-21T08:07:56.525Z,38.60
2018-11-21T08:13:19.022Z,37.63
2018-11-21T08:18:56.756Z,36.20
2018-11-21T08:24:11.044Z,33.07
2018-11-21T08:29:14.660Z,33.40
2018-11-21T08:34:18.227Z,34.23
2018-11-21T08:39:21.860Z,45.63
2018-11-21T08:44:25.526Z,36.50
2018-11-21T08:49:30.223Z,36.73
2018-11-21T08:54:32.809Z,36.33
2018-11-21T08:59:36.238Z,39.93
2018-11-21T09:04:40.007Z,36.83
2018-11-21T09:09:43.705Z,36.87
2018-11-21T09:14:47.289Z,37.10
2018-11-21T09:19:51.417Z,39.10
2018-11-21T09:24:54.975Z,38.97
2018-11-21T09:29:58.530Z,32.13
2018-11-21T09:35:12.601Z,35.30
2018-11-21T09:40:17.847Z,35.10
2018-11-21T09:45:22.553Z,33.47
2018-11-21T09:50:28.247Z,38.53
2018-11-21T09:55:31.988Z,35.33
2018-11-21T10:01:12.482Z,31.33
2018-11-21T10:06:24.408Z,37.77
2018-11-21T10:11:32.112Z,32.43
2018-11-21T10:16:36.004Z,38.13
2018-11-21T10:21:40.113Z,32.00
2018-11-21T10:26:44.014Z,32.90
2018-11-21T10:31:49.114Z,32.57
2018-11-21T10:36:51.592Z,36.30
2018-11-21T10:41:57.433Z,33.17
2018-11-21T10:47:03.208Z,40.80
2018-11-21T10:52:06.793Z,32.33
2018-11-21T10:57:12.774Z,34.27
2018-11-21T11:02:25.532Z,35.73
2018-11-21T11:19:27.372Z,36.87
2018-11-21T11:24:53.682Z,35.37
2018-11-21T11:30:19.413Z,33.67
2018-11-21T11:35:45.598Z,33.40
2018-11-21T11:41:12.354Z,33.43
2018-11-21T11:46:32.875Z,34.43
2018-11-21T11:51:52.172Z,35.10
2018-11-21T11:57:13.598Z,34.03
2018-11-21T12:02:38.849Z,41.90
2018-11-21T12:08:01.679Z,34.97
2018-11-21T12:13:41.190Z,31.20
2018-11-21T12:19:14.047Z,30.30
2018-11-21T12:24:35.464Z,33.13
2018-11-21T12:30:03.315Z,31.63
2018-11-21T12:35:37.788Z,31.53
2018-11-21T12:41:10.464Z,35.05
2018-11-21T12:46:47.629Z,35.60
2018-11-21T12:52:22.379Z,36.77
2018-11-21T12:57:43.969Z,34.07
2018-11-21T13:03:01.200Z,31.83
2018-11-21T13:08:27.945Z,31.20
2018-11-21T13:13:53.422Z,28.30
2018-11-21T13:19:23.110Z,30.00
2018-11-21T13:24:44.773Z,32.10
2018-11-21T13:29:56.005Z,28.77
2018-11-21T13:35:07.006Z,33.40
2018-11-21T13:40:30.734Z,28.90
2018-11-21T13:45:52.198Z,35.63
2018-11-21T13:51:15.364Z,35.67
2018-11-21T13:56:17.874Z,34.90
2018-11-21T14:01:23.269Z,32.33
2018-11-21T14:06:29.684Z,33.87
2018-11-21T14:11:31.691Z,34.80
2018-11-21T14:16:37.761Z,32.97
2018-11-21T14:21:42.814Z,34.27
2018-11-21T14:26:55.397Z,33.43
2018-11-21T14:31:55.287Z,35.20
2018-11-21T14:37:03.837Z,34.63
2018-11-21T14:42:08.130Z,33.37
2018-11-21T14:47:08.820Z,36.77
2018-11-21T14:52:14.091Z,33.57
2018-11-21T14:57:15.550Z,32.93
2018-11-21T15:02:17.845Z,37.00
2018-11-21T15:07:23.501Z,29.30
2018-11-21T15:12:25.213Z,32.87
2018-11-21T15:17:31.077Z,34.20
2018-11-21T15:22:44.519Z,33.10
2018-11-21T15:27:48.164Z,33.90
2018-11-21T15:32:53.088Z,30.10
2018-11-21T15:37:57.516Z,34.00
2018-11-21T15:42:59.107Z,33.13
2018-11-21T15:48:03.232Z,30.50
2018-11-21T15:53:07.059Z,31.80
2018-11-21T15:58:10.643Z,33.63
2018-11-21T16:03:14.401Z,30.27
2018-11-21T16:08:22.112Z,33.50
2018-11-21T16:13:24.572Z,29.20
2018-11-21T16:18:28.691Z,30.03
2018-11-21T16:23:32.478Z,28.10
2018-11-21T16:28:36.288Z,31.60
2018-11-21T16:33:39.847Z,28.03
2018-11-21T16:38:43.410Z,30.93
2018-11-21T16:43:48.064Z,31.13
2018-11-21T16:48:51.776Z,29.43
2018-11-21T16:53:55.476Z,32.30
2018-11-21T16:59:02.910Z,29.93
2018-11-21T17:04:12.873Z,32.23
2018-11-21T17:09:17.525Z,27.50
2018-11-21T17:14:21.066Z,30.87
2018-11-21T17:19:25.215Z,26.87
2018-11-21T17:24:29.261Z,28.33
2018-11-21T17:29:34.960Z,30.13
2018-11-21T17:34:40.762Z,25.50
2018-11-21T17:39:46.847Z,28.07
2018-11-21T17:50:15.482Z,25.48
2018-11-21T17:55:21.125Z,29.75
2018-11-21T18:00:26.204Z,28.47
2018-11-21T18:05:31.791Z,24.47
2018-11-21T18:10:36.922Z,23.83
2018-11-21T18:15:40.757Z,28.40
2018-11-21T18:20:44.397Z,25.83
2018-11-21T18:25:48.249Z,26.23
2018-11-21T18:30:51.998Z,24.43
2018-11-21T18:42:23.537Z,22.63
2018-11-21T18:47:25.972Z,20.90
2018-11-21T18:52:29.646Z,20.80
2018-11-21T18:58:15.347Z,18.53
2018-11-21T19:03:19.303Z,22.70
2018-11-21T19:08:23.997Z,21.10
2018-11-21T19:13:28.398Z,21.03
2018-11-21T19:18:32.208Z,21.90
2018-11-21T19:23:35.877Z,23.13
2018-11-21T19:28:39.550Z,21.50
2018-11-21T19:33:43.472Z,23.57
2018-11-21T19:38:47.144Z,21.17
2018-11-21T19:43:50.886Z,22.87
2018-11-21T19:48:54.482Z,25.67
2018-11-21T19:53:58.357Z,24.97
2018-11-21T19:59:01.972Z,28.00
2018-11-21T20:04:05.722Z,23.80
2018-11-21T20:09:12.163Z,28.17
2018-11-21T20:14:16.688Z,27.23
2018-11-21T20:19:24.397Z,29.23
2018-11-21T20:24:31.026Z,28.67
2018-11-21T20:29:34.736Z,30.63
2018-11-21T20:34:39.280Z,29.57
2018-11-21T20:39:46.826Z,31.90
2018-11-21T20:44:46.348Z,33.57
2018-11-21T20:49:50.106Z,34.73
2018-11-21T20:54:59.065Z,35.83
2018-11-21T21:00:00.429Z,34.83
2018-11-21T21:05:04.376Z,33.17
2018-11-21T21:10:09.307Z,37.60
2018-11-21T21:15:12.965Z,40.63
2018-11-21T21:20:18.428Z,37.47
2018-11-21T21:25:23.758Z,39.03
2018-11-21T21:30:31.261Z,37.63
2018-11-21T21:35:33.448Z,35.93
2018-11-21T21:40:37.125Z,41.20
2018-11-21T21:45:40.993Z,41.57
2018-11-21T21:50:44.621Z,44.30
2018-11-21T21:55:48.182Z,42.07
2018-11-21T22:00:51.812Z,40.47
2018-11-21T22:05:55.391Z,38.70
2018-11-21T22:10:59.097Z,43.10
2018-11-21T22:16:02.725Z,42.13
2018-11-21T22:21:06.611Z,39.73
2018-11-21T22:26:10.181Z,45.13
2018-11-21T22:31:13.852Z,40.73
2018-11-21T22:36:17.625Z,43.33
2018-11-21T22:41:22.378Z,45.03
2018-11-21T22:46:24.996Z,41.40
2018-11-21T22:51:29.636Z,40.90
2018-11-21T22:56:32.188Z,41.47
2018-11-21T23:01:40.801Z,40.50
2018-11-21T23:06:45.390Z,38.80
2018-11-21T23:12:03.768Z,39.70
2018-11-21T23:30:16.974Z,39.57
2018-11-21T23:36:28.005Z,39.03
2018-11-21T23:42:07.058Z,35.27
2018-11-21T23:47:51.754Z,41.60
2018-11-21T23:53:23.800Z,40.27
2018-11-21T23:58:53.993Z,36.57
